createdAt,value
2018-01-26T00:01:22.677Z,95.65
2018-01-26T00:03:50.187Z,95.67
2018-01-26T00:06:17.805Z,95.83
2018-01-26T00:08:45.354Z,95.84
2018-01-26T00:11:12.898Z,95.75
2018-01-26T00:13:40.433Z,95.69
2018-01-26T00:16:07.974Z,95.69
2018-01-26T00:18:35.485Z,95.70
2018-01-26T00:21:02.989Z,95.67
2018-01-26T00:23:30.629Z,95.68
2018-01-26T00:25:58.142Z,95.67
2018-01-26T00:28:25.685Z,95.67
2018-01-26T00:30:53.245Z,95.77
2018-01-26T00:33:20.768Z,95.83
2018-01-26T00:35:48.268Z,95.82
2018-01-26T00:38:15.835Z,95.90
2018-01-26T00:40:43.380Z,95.84
2018-01-26T00:43:10.892Z,95.64
2018-01-26T00:45:38.416Z,95.66
2018-01-26T00:48:05.948Z,95.74
2018-01-26T00:50:33.536Z,95.73
2018-01-26T00:53:01.074Z,95.83
2018-01-26T00:55:28.616Z,95.85
2018-01-26T00:57:56.167Z,95.88
2018-01-26T01:00:23.699Z,95.86
2018-01-26T01:02:51.261Z,95.83
2018-01-26T01:05:18.796Z,95.86
2018-01-26T01:07:46.311Z,95.87
2018-01-26T01:10:13.861Z,95.84
2018-01-26T01:12:41.416Z,95.84
2018-01-26T01:15:08.975Z,95.88
2018-01-26T01:17:36.520Z,95.95
2018-01-26T01:20:04.088Z,95.93
2018-01-26T01:22:31.596Z,95.92
2018-01-26T01:24:59.120Z,95.91
2018-01-26T01:27:26.643Z,95.97
2018-01-26T01:29:54.202Z,96.02
2018-01-26T01:32:21.732Z,95.93
2018-01-26T01:34:49.323Z,95.97
2018-01-26T01:37:16.848Z,95.98
2018-01-26T01:39:44.395Z,96.00
2018-01-26T01:42:11.999Z,96.12
2018-01-26T01:44:39.581Z,96.14
2018-01-26T01:47:07.112Z,96.15
2018-01-26T01:49:34.628Z,96.14
2018-01-26T01:52:02.344Z,96.20
2018-01-26T01:54:29.872Z,96.20
2018-01-26T01:56:57.405Z,96.25
2018-01-26T01:59:25.033Z,96.28
2018-01-26T02:01:52.582Z,96.31
2018-01-26T02:04:20.127Z,96.32
2018-01-26T02:06:47.648Z,96.41
2018-01-26T02:09:15.276Z,96.47
2018-01-26T02:11:42.850Z,96.50
2018-01-26T02:14:10.357Z,96.51
2018-01-26T02:16:38.041Z,96.45
2018-01-26T02:19:05.594Z,96.38
2018-01-26T02:21:33.155Z,96.34
2018-01-26T02:24:00.734Z,96.36
2018-01-26T02:26:28.494Z,96.36
2018-01-26T02:28:56.020Z,96.41
2018-01-26T02:31:23.552Z,96.39
2018-01-26T02:33:51.174Z,96.35
2018-01-26T02:36:18.700Z,96.31
2018-01-26T02:38:46.224Z,96.34
2018-01-26T02:41:13.752Z,96.36
2018-01-26T02:43:41.257Z,96.35
2018-01-26T02:46:08.819Z,96.30
2018-01-26T02:48:36.428Z,96.25
2018-01-26T02:51:03.943Z,96.22
2018-01-26T02:53:31.477Z,96.19
2018-01-26T02:55:59.105Z,96.18
2018-01-26T02:58:26.613Z,96.15
2018-01-26T03:00:54.309Z,96.10
2018-01-26T03:03:21.861Z,96.12
2018-01-26T03:05:49.445Z,96.20
2018-01-26T03:08:16.948Z,96.23
2018-01-26T03:10:44.565Z,96.22
2018-01-26T03:13:12.080Z,96.20
2018-01-26T03:15:39.774Z,96.25
2018-01-26T03:18:07.301Z,96.32
2018-01-26T03:20:34.888Z,96.42
2018-01-26T03:23:02.426Z,96.49
2018-01-26T03:25:29.933Z,96.49
2018-01-26T03:27:57.468Z,96.54
2018-01-26T03:30:25.027Z,96.55
2018-01-26T03:32:52.604Z,96.52
2018-01-26T03:35:20.113Z,96.51
2018-01-26T03:37:47.661Z,96.64
2018-01-26T03:40:15.213Z,96.70
2018-01-26T03:42:42.745Z,96.81
2018-01-26T03:45:10.769Z,96.77
2018-01-26T03:47:38.269Z,96.72
2018-01-26T03:50:05.803Z,96.82
2018-01-26T03:52:39.836Z,96.92
2018-01-26T03:55:07.368Z,96.96
2018-01-26T03:57:34.873Z,97.03
2018-01-26T04:00:02.496Z,97.09
2018-01-26T04:02:30.156Z,97.14
2018-01-26T04:04:57.696Z,97.18
2018-01-26T04:07:25.244Z,97.19
2018-01-26T04:09:52.772Z,97.14
2018-01-26T04:12:20.290Z,97.10
2018-01-26T04:14:47.856Z,97.07
2018-01-26T04:17:15.388Z,96.90
2018-01-26T04:19:42.967Z,96.83
2018-01-26T04:22:10.521Z,96.87
2018-01-26T04:24:38.029Z,96.66
2018-01-26T04:27:05.537Z,96.45
2018-01-26T04:29:33.075Z,96.48
2018-01-26T04:32:00.584Z,96.44
2018-01-26T04:34:28.123Z,96.39
2018-01-26T04:36:55.629Z,96.21
2018-01-26T04:39:23.172Z,95.62
2018-01-26T04:41:50.740Z,95.04
2018-01-26T04:44:18.253Z,94.75
2018-01-26T04:46:45.760Z,94.86
2018-01-26T04:49:13.371Z,94.44
2018-01-26T04:51:40.931Z,94.76
2018-01-26T04:54:08.433Z,94.83
2018-01-26T04:56:35.960Z,94.77
2018-01-26T04:59:03.480Z,94.82
2018-01-26T05:01:31.085Z,94.88
2018-01-26T05:03:58.596Z,94.88
2018-01-26T05:06:26.181Z,94.89
2018-01-26T05:08:53.697Z,94.70
2018-01-26T05:11:21.260Z,94.77
2018-01-26T05:13:48.887Z,94.85
2018-01-26T05:16:16.393Z,94.70
2018-01-26T05:18:43.894Z,94.46
2018-01-26T05:21:11.417Z,94.59
2018-01-26T05:23:38.922Z,94.75
2018-01-26T05:26:06.455Z,94.78
2018-01-26T05:28:33.980Z,94.90
2018-01-26T05:31:01.508Z,94.92
2018-01-26T05:33:29.051Z,94.76
2018-01-26T05:35:56.569Z,94.88
2018-01-26T05:38:24.169Z,94.79
2018-01-26T05:40:51.715Z,94.64
2018-01-26T05:43:19.292Z,94.48
2018-01-26T05:45:46.938Z,94.14
2018-01-26T05:48:14.440Z,94.08
2018-01-26T05:50:41.956Z,93.81
2018-01-26T05:53:09.468Z,93.71
2018-01-26T05:55:37.085Z,93.82
2018-01-26T05:58:04.626Z,94.05
2018-01-26T06:00:32.195Z,94.04
2018-01-26T06:02:59.719Z,94.29
2018-01-26T06:05:27.320Z,94.42
2018-01-26T06:07:54.972Z,94.39
2018-01-26T06:10:22.486Z,94.11
2018-01-26T06:12:50.025Z,93.94
2018-01-26T06:15:17.552Z,94.11
2018-01-26T06:17:45.086Z,94.33
2018-01-26T06:20:12.627Z,94.40
2018-01-26T06:22:40.169Z,94.15
2018-01-26T06:25:07.697Z,94.29
2018-01-26T06:27:35.241Z,94.23
2018-01-26T06:30:02.750Z,94.23
2018-01-26T06:32:30.296Z,94.25
2018-01-26T06:34:57.937Z,94.34
2018-01-26T06:37:25.455Z,94.11
2018-01-26T06:39:53.048Z,94.21
2018-01-26T06:42:20.708Z,94.23
2018-01-26T06:44:48.213Z,94.04
2018-01-26T06:47:15.721Z,94.07
2018-01-26T06:49:43.274Z,94.07
2018-01-26T06:52:10.858Z,94.38
2018-01-26T06:54:38.448Z,94.54
2018-01-26T06:57:05.960Z,94.49
2018-01-26T06:59:33.465Z,94.21
2018-01-26T07:02:01.020Z,94.16
2018-01-26T07:04:28.527Z,93.96
2018-01-26T07:06:56.029Z,93.94
2018-01-26T07:09:23.592Z,94.00
2018-01-26T07:11:51.182Z,94.22
2018-01-26T07:14:18.713Z,94.18
2018-01-26T07:16:46.338Z,94.19
2018-01-26T07:19:13.899Z,94.23
2018-01-26T07:21:41.477Z,94.19
2018-01-26T07:24:08.993Z,93.93
2018-01-26T07:26:36.575Z,94.10
2018-01-26T07:29:04.224Z,94.29
2018-01-26T07:31:31.738Z,94.28
2018-01-26T07:33:59.356Z,94.00
2018-01-26T07:36:26.900Z,93.91
2018-01-26T07:38:54.437Z,94.11
2018-01-26T07:41:21.988Z,94.04
2018-01-26T07:43:49.503Z,94.29
2018-01-26T07:46:17.035Z,94.38
2018-01-26T07:48:44.600Z,94.38
2018-01-26T07:51:12.176Z,93.83
2018-01-26T07:53:39.681Z,93.61
2018-01-26T07:56:07.285Z,93.91
2018-01-26T07:58:34.841Z,94.10
2018-01-26T08:01:02.362Z,93.78
2018-01-26T08:03:30.055Z,93.80
2018-01-26T08:05:57.645Z,93.86
2018-01-26T08:08:25.186Z,93.82
2018-01-26T08:10:52.748Z,94.02
2018-01-26T08:13:20.321Z,93.87
2018-01-26T08:15:47.849Z,93.58
2018-01-26T08:18:15.357Z,93.78
2018-01-26T08:20:42.970Z,93.91
2018-01-26T08:23:10.487Z,93.79
2018-01-26T08:25:38.014Z,93.71
2018-01-26T08:28:05.569Z,93.55
2018-01-26T08:30:33.102Z,93.39
2018-01-26T08:33:00.605Z,93.30
2018-01-26T08:35:28.165Z,92.89
2018-01-26T08:37:55.700Z,93.09
2018-01-26T08:40:23.243Z,93.25
2018-01-26T08:42:50.781Z,93.19
2018-01-26T08:45:18.358Z,93.19
2018-01-26T08:47:45.917Z,92.89
2018-01-26T08:50:13.492Z,92.44
2018-01-26T08:52:41.060Z,92.09
2018-01-26T08:55:19.405Z,92.34
2018-01-26T08:57:46.950Z,92.48
2018-01-26T09:00:14.468Z,92.40
2018-01-26T09:02:41.997Z,92.54
2018-01-26T09:05:09.558Z,92.62
2018-01-26T09:07:37.092Z,92.98
2018-01-26T09:10:04.665Z,93.06
2018-01-26T09:12:32.262Z,93.02
2018-01-26T09:14:59.769Z,93.07
2018-01-26T09:17:27.492Z,93.25
2018-01-26T09:19:55.000Z,93.15
2018-01-26T09:22:22.512Z,93.24
2018-01-26T09:24:50.076Z,93.13
2018-01-26T09:27:17.649Z,93.27
2018-01-26T09:29:45.178Z,93.50
2018-01-26T09:32:12.713Z,93.49
2018-01-26T09:34:40.296Z,93.11
2018-01-26T09:37:07.857Z,93.27
2018-01-26T09:39:35.389Z,93.33
2018-01-26T09:42:02.952Z,93.19
2018-01-26T09:44:30.508Z,93.32
2018-01-26T09:46:58.094Z,93.14
2018-01-26T09:49:25.723Z,93.38
2018-01-26T09:51:53.256Z,93.37
2018-01-26T09:54:20.785Z,93.47
2018-01-26T09:56:48.330Z,93.66
2018-01-26T09:59:16.198Z,93.48
2018-01-26T10:01:43.729Z,93.33
2018-01-26T10:04:11.316Z,93.29
2018-01-26T10:06:38.870Z,93.38
2018-01-26T10:09:06.372Z,93.32
2018-01-26T10:11:33.912Z,93.15
2018-01-26T10:14:01.558Z,92.85
2018-01-26T10:16:29.063Z,92.55
2018-01-26T10:18:56.594Z,92.70
2018-01-26T10:21:24.141Z,92.63
2018-01-26T10:23:51.664Z,92.90
2018-01-26T10:26:19.358Z,93.43
2018-01-26T10:28:46.901Z,93.48
2018-01-26T10:31:14.474Z,93.40
2018-01-26T10:33:42.001Z,93.46
2018-01-26T10:36:09.508Z,93.34
2018-01-26T10:38:37.013Z,93.31
2018-01-26T10:41:04.557Z,93.14
2018-01-26T10:43:32.074Z,93.28
2018-01-26T10:45:59.604Z,93.51
2018-01-26T10:48:27.136Z,93.36
2018-01-26T10:50:54.692Z,93.43
2018-01-26T10:53:22.244Z,93.72
2018-01-26T10:55:49.781Z,93.48
2018-01-26T10:58:17.314Z,93.42
2018-01-26T11:00:44.846Z,93.49
2018-01-26T11:03:12.453Z,93.73
2018-01-26T11:05:39.990Z,93.64
2018-01-26T11:08:07.548Z,93.94
2018-01-26T11:10:35.065Z,94.06
2018-01-26T11:13:02.595Z,93.86
2018-01-26T11:15:30.122Z,93.83
2018-01-26T11:17:57.680Z,93.84
2018-01-26T11:20:25.257Z,93.96
2018-01-26T11:22:52.789Z,93.79
2018-01-26T11:25:20.344Z,93.60
2018-01-26T11:27:47.934Z,93.53
2018-01-26T11:30:15.475Z,93.74
2018-01-26T11:32:43.005Z,93.97
2018-01-26T11:35:10.869Z,93.82
2018-01-26T11:37:38.405Z,93.76
2018-01-26T11:40:06.060Z,94.25
2018-01-26T11:42:33.647Z,94.29
2018-01-26T11:45:01.260Z,94.47
2018-01-26T11:47:28.805Z,94.48
2018-01-26T11:49:56.316Z,94.42
2018-01-26T11:52:23.874Z,94.37
2018-01-26T11:54:51.400Z,94.33
2018-01-26T11:57:18.905Z,94.35
2018-01-26T11:59:46.466Z,94.51
2018-01-26T12:02:14.092Z,94.53
2018-01-26T12:04:41.594Z,94.57
2018-01-26T12:07:09.108Z,94.61
2018-01-26T12:09:36.649Z,94.66
2018-01-26T12:12:04.188Z,94.67
2018-01-26T12:14:31.758Z,94.53
2018-01-26T12:16:59.287Z,94.50
2018-01-26T12:19:26.812Z,93.74
2018-01-26T12:21:54.349Z,91.66
2018-01-26T12:24:21.875Z,91.15
2018-01-26T12:26:49.405Z,91.13
2018-01-26T12:29:16.930Z,91.42
2018-01-26T12:31:44.485Z,91.79
2018-01-26T12:34:12.005Z,91.91
2018-01-26T12:36:39.552Z,91.71
2018-01-26T12:39:07.139Z,91.90
2018-01-26T12:41:34.670Z,92.06
2018-01-26T12:44:02.183Z,92.04
2018-01-26T12:46:29.708Z,92.12
2018-01-26T12:48:57.405Z,91.96
2018-01-26T12:51:24.932Z,91.33
2018-01-26T12:53:52.527Z,91.30
2018-01-26T12:56:20.236Z,91.40
2018-01-26T12:58:47.781Z,91.06
2018-01-26T13:01:15.326Z,91.06
2018-01-26T13:03:42.878Z,90.84
2018-01-26T13:06:10.410Z,90.20
2018-01-26T13:08:37.929Z,90.97
2018-01-26T13:11:05.461Z,91.11
2018-01-26T13:13:32.995Z,91.08
2018-01-26T13:16:00.554Z,90.85
2018-01-26T13:18:28.085Z,90.71
2018-01-26T13:20:55.604Z,90.51
2018-01-26T13:23:23.193Z,90.24
2018-01-26T13:25:50.714Z,90.47
2018-01-26T13:28:18.262Z,90.67
2018-01-26T13:30:45.818Z,90.91
2018-01-26T13:33:13.323Z,91.14
2018-01-26T13:35:40.885Z,90.92
2018-01-26T13:38:08.409Z,91.15
2018-01-26T13:40:35.916Z,91.25
2018-01-26T13:43:03.461Z,90.75
2018-01-26T13:45:30.985Z,91.14
2018-01-26T13:47:58.631Z,91.45
2018-01-26T13:50:26.213Z,91.75
2018-01-26T13:52:53.760Z,91.56
2018-01-26T13:55:21.286Z,91.56
2018-01-26T13:57:48.823Z,91.28
2018-01-26T14:00:16.350Z,91.16
2018-01-26T14:02:43.903Z,91.82
2018-01-26T14:05:12.279Z,92.08
2018-01-26T14:07:39.810Z,92.34
2018-01-26T14:10:07.325Z,92.31
2018-01-26T14:12:34.873Z,91.84
2018-01-26T14:15:02.419Z,92.01
2018-01-26T14:17:29.963Z,92.27
2018-01-26T14:19:58.414Z,91.84
2018-01-26T14:22:25.959Z,91.24
2018-01-26T14:24:53.489Z,91.09
2018-01-26T14:27:21.020Z,91.10
2018-01-26T14:29:48.787Z,90.75
2018-01-26T14:32:16.608Z,90.78
2018-01-26T14:34:44.209Z,90.27
2018-01-26T14:37:11.764Z,89.62
2018-01-26T14:39:39.297Z,90.10
2018-01-26T14:42:06.797Z,90.24
2018-01-26T14:44:34.469Z,90.62
2018-01-26T14:47:02.010Z,90.76
2018-01-26T14:49:29.536Z,90.99
2018-01-26T14:51:57.067Z,90.21
2018-01-26T14:54:24.589Z,89.92
2018-01-26T14:56:52.129Z,90.14
2018-01-26T14:59:19.702Z,90.13
2018-01-26T15:01:47.237Z,90.47
2018-01-26T15:04:14.792Z,90.45
2018-01-26T15:06:42.316Z,90.30
2018-01-26T15:09:09.852Z,89.93
2018-01-26T15:11:37.404Z,89.75
2018-01-26T15:14:04.944Z,89.99
2018-01-26T15:16:32.496Z,90.25
2018-01-26T15:19:00.043Z,90.49
2018-01-26T15:21:27.577Z,90.54
2018-01-26T15:23:55.298Z,90.73
2018-01-26T15:26:22.814Z,90.73
2018-01-26T15:28:50.323Z,90.32
2018-01-26T15:31:17.844Z,90.16
2018-01-26T15:33:45.352Z,90.07
2018-01-26T15:36:12.883Z,89.96
2018-01-26T15:38:40.400Z,89.75
2018-01-26T15:41:08.021Z,89.61
2018-01-26T15:43:35.578Z,89.66
2018-01-26T15:46:03.084Z,89.15
2018-01-26T15:48:30.633Z,89.72
2018-01-26T15:50:58.135Z,89.86
2018-01-26T15:53:25.733Z,89.57
2018-01-26T15:55:53.257Z,89.61
2018-01-26T15:58:20.764Z,89.53
2018-01-26T16:00:48.328Z,89.21
2018-01-26T16:03:15.849Z,89.34
2018-01-26T16:05:43.429Z,89.20
2018-01-26T16:08:10.973Z,89.18
2018-01-26T16:10:38.545Z,89.35
2018-01-26T16:13:06.092Z,89.28
2018-01-26T16:15:33.624Z,89.31
2018-01-26T16:18:01.208Z,89.33
2018-01-26T16:20:28.808Z,89.51
2018-01-26T16:22:56.369Z,89.73
2018-01-26T16:25:23.908Z,89.77
2018-01-26T16:27:51.439Z,89.95
2018-01-26T16:30:18.988Z,89.88
2018-01-26T16:32:46.521Z,90.38
2018-01-26T16:35:14.026Z,90.37
2018-01-26T16:37:41.686Z,90.44
2018-01-26T16:40:09.225Z,90.43
2018-01-26T16:42:36.834Z,90.64
2018-01-26T16:45:04.574Z,90.81
2018-01-26T16:47:32.073Z,90.65
2018-01-26T16:49:59.600Z,90.72
2018-01-26T16:52:27.132Z,90.79
2018-01-26T16:54:54.651Z,90.80
2018-01-26T16:57:22.372Z,91.05
2018-01-26T16:59:49.945Z,91.00
2018-01-26T17:02:17.476Z,90.98
2018-01-26T17:04:45.022Z,90.86
2018-01-26T17:07:12.537Z,90.94
2018-01-26T17:09:40.075Z,91.00
2018-01-26T17:12:07.626Z,91.09
2018-01-26T17:14:35.179Z,91.04
2018-01-26T17:17:02.739Z,90.92
2018-01-26T17:19:30.343Z,90.99
2018-01-26T17:21:58.135Z,91.27
2018-01-26T17:24:25.688Z,91.30
2018-01-26T17:26:53.248Z,91.29
2018-01-26T17:29:20.764Z,91.32
2018-01-26T17:31:48.324Z,91.32
2018-01-26T17:34:16.296Z,91.33
2018-01-26T17:36:43.813Z,91.19
2018-01-26T17:39:11.381Z,91.20
2018-01-26T17:41:38.894Z,91.22
2018-01-26T17:44:06.397Z,91.21
2018-01-26T17:46:33.917Z,91.31
2018-01-26T17:49:01.445Z,91.23
2018-01-26T17:51:28.970Z,91.18
2018-01-26T17:53:56.565Z,91.25
2018-01-26T17:56:24.122Z,91.27
2018-01-26T17:58:51.786Z,91.26
2018-01-26T18:01:19.292Z,91.00
2018-01-26T18:03:46.845Z,90.72
2018-01-26T18:06:14.467Z,90.80
2018-01-26T18:08:41.991Z,90.54
2018-01-26T18:11:09.520Z,90.64
2018-01-26T18:13:37.042Z,90.64
2018-01-26T18:16:04.623Z,90.50
2018-01-26T18:18:32.176Z,90.73
2018-01-26T18:20:59.706Z,90.79
2018-01-26T18:23:27.253Z,90.84
2018-01-26T18:25:54.796Z,90.92
2018-01-26T18:28:22.393Z,91.13
2018-01-26T18:30:49.937Z,91.32
2018-01-26T18:33:17.505Z,91.26
2018-01-26T18:35:45.062Z,91.23
2018-01-26T18:38:12.576Z,91.37
2018-01-26T18:40:40.077Z,91.53
2018-01-26T18:43:07.961Z,91.70
2018-01-26T18:45:35.520Z,91.81
2018-01-26T18:48:03.051Z,91.49
2018-01-26T18:50:30.625Z,91.86
2018-01-26T18:52:58.129Z,91.53
2018-01-26T18:55:25.668Z,91.62
2018-01-26T18:57:53.215Z,91.22
2018-01-26T19:00:20.757Z,91.01
2018-01-26T19:02:48.357Z,90.56
2018-01-26T19:05:15.920Z,90.20
2018-01-26T19:07:43.570Z,90.20
2018-01-26T19:10:11.095Z,90.05
2018-01-26T19:12:38.637Z,89.96
2018-01-26T19:15:06.232Z,89.83
2018-01-26T19:17:33.781Z,89.84
2018-01-26T19:20:01.327Z,90.21
2018-01-26T19:22:28.894Z,90.44
2018-01-26T19:24:56.420Z,90.61
2018-01-26T19:27:23.939Z,90.50
2018-01-26T19:29:51.445Z,90.58
2018-01-26T19:32:18.992Z,90.51
2018-01-26T19:34:46.515Z,90.21
2018-01-26T19:37:14.081Z,90.16
2018-01-26T19:39:41.613Z,90.43
2018-01-26T19:42:09.143Z,90.56
2018-01-26T19:44:36.644Z,90.52
2018-01-26T19:47:04.192Z,90.54
2018-01-26T19:49:31.721Z,90.46
2018-01-26T19:51:59.320Z,90.82
2018-01-26T19:54:26.904Z,90.82
2018-01-26T19:56:54.434Z,90.96
2018-01-26T19:59:21.981Z,90.81
2018-01-26T20:01:49.576Z,90.48
2018-01-26T20:07:29.019Z,90.10
2018-01-26T20:09:56.545Z,89.97
2018-01-26T20:12:24.065Z,90.01
2018-01-26T20:14:51.713Z,90.21
2018-01-26T20:17:19.241Z,90.41
2018-01-26T20:19:46.780Z,90.36
2018-01-26T20:22:14.400Z,90.15
2018-01-26T20:24:41.924Z,90.40
2018-01-26T20:27:09.497Z,90.43
2018-01-26T20:29:37.026Z,90.54
2018-01-26T20:32:04.566Z,90.53
2018-01-26T20:34:32.109Z,90.57
2018-01-26T20:36:59.649Z,90.60
2018-01-26T20:39:27.208Z,90.23
2018-01-26T20:41:54.746Z,90.08
2018-01-26T20:44:22.282Z,90.31
2018-01-26T20:46:49.781Z,90.29
2018-01-26T20:49:17.329Z,90.21
2018-01-26T20:51:44.900Z,89.99
2018-01-26T20:54:12.443Z,90.49
2018-01-26T20:56:40.029Z,90.58
2018-01-26T20:59:07.565Z,90.22
2018-01-26T21:01:35.128Z,90.31
2018-01-26T21:04:02.656Z,90.05
2018-01-26T21:06:30.180Z,90.17
2018-01-26T21:08:57.717Z,90.22
2018-01-26T21:11:25.264Z,89.96
2018-01-26T21:13:52.789Z,89.74
2018-01-26T21:16:20.379Z,90.25
2018-01-26T21:18:47.905Z,90.61
2018-01-26T21:21:15.516Z,90.55
2018-01-26T21:23:43.033Z,90.42
2018-01-26T21:26:10.638Z,90.17
2018-01-26T21:28:38.151Z,90.21
2018-01-26T21:31:05.712Z,89.96
2018-01-26T21:33:33.249Z,89.92
2018-01-26T21:36:00.783Z,90.16
2018-01-26T21:38:28.311Z,90.13
2018-01-26T21:40:55.888Z,89.98
2018-01-26T21:43:23.456Z,90.81
2018-01-26T21:45:50.977Z,90.23
2018-01-26T21:48:18.496Z,90.19
2018-01-26T21:50:46.033Z,89.90
2018-01-26T21:53:13.593Z,89.90
2018-01-26T21:55:41.134Z,89.95
2018-01-26T21:58:08.690Z,90.03
2018-01-26T22:00:36.217Z,90.46
2018-01-26T22:03:03.901Z,90.38
2018-01-26T22:05:31.401Z,89.98
2018-01-26T22:07:58.926Z,90.22
2018-01-26T22:10:26.513Z,90.53
2018-01-26T22:12:54.035Z,90.24
2018-01-26T22:15:21.584Z,90.24
2018-01-26T22:17:49.166Z,90.63
2018-01-26T22:20:16.829Z,90.71
2018-01-26T22:22:44.402Z,90.93
2018-01-26T22:25:11.918Z,90.41
2018-01-26T22:27:39.477Z,90.39
2018-01-26T22:30:06.999Z,90.69
2018-01-26T22:32:34.510Z,91.53
2018-01-26T22:35:02.025Z,91.04
2018-01-26T22:37:29.527Z,90.18
2018-01-26T22:39:57.072Z,90.94
2018-01-26T22:42:24.652Z,90.84
2018-01-26T22:44:52.188Z,90.40
2018-01-26T22:47:19.700Z,90.75
2018-01-26T22:49:47.263Z,91.00
2018-01-26T22:52:14.773Z,91.12
2018-01-26T22:54:42.280Z,91.01
2018-01-26T22:57:09.797Z,91.45
2018-01-26T22:59:37.320Z,91.29
2018-01-26T23:02:04.873Z,91.68
2018-01-26T23:04:32.420Z,91.66
2018-01-26T23:06:59.949Z,91.38
2018-01-26T23:09:27.449Z,91.04
2018-01-26T23:11:54.976Z,91.23
2018-01-26T23:14:22.514Z,91.62
2018-01-26T23:16:50.019Z,91.96
2018-01-26T23:19:17.526Z,91.25
2018-01-26T23:21:45.332Z,91.07
2018-01-26T23:24:12.860Z,90.65
2018-01-26T23:26:40.361Z,90.58
2018-01-26T23:29:07.912Z,90.60
2018-01-26T23:31:35.434Z,91.50
2018-01-26T23:34:02.965Z,91.44
2018-01-26T23:36:30.523Z,91.25
2018-01-26T23:38:58.057Z,91.73
2018-01-26T23:41:25.621Z,91.50
2018-01-26T23:43:53.172Z,91.49
2018-01-26T23:46:20.697Z,92.21
2018-01-26T23:48:48.237Z,91.72
2018-01-26T23:51:15.809Z,91.63
2018-01-26T23:53:43.384Z,91.74
2018-01-26T23:56:10.898Z,92.14
2018-01-26T23:58:38.401Z,91.76
